Time;durP1;ratioP1;P1;durP2;ratioP2;P2;SDS_P1;SDS_P2;PMS_P1;PMS_P2;Temp;Humidity;BMP_temperature;BMP_pressure;BME280_temperature;BME280_humidity;BME280_pressure;Samples;Min_cycle;Max_cycle;Signal;HPM_P1;HPM_P2
2021/01/02 00:01:17;;;;;;;10.68;3.45;;;5.00;99.90;;;;;;5026133;28;20052;-84
2021/01/02 00:04:22;;;;;;;5.05;4.20;;;5.00;99.90;;;;;;5028202;28;20490;-84
2021/01/02 00:07:03;;;;;;;7.07;4.25;;;5.10;99.90;;;;;;5042137;28;20040;-84
2021/01/02 00:09:32;;;;;;;9.57;4.22;;;5.10;99.90;;;;;;5069965;28;20045;-84
2021/01/02 00:12:24;;;;;;;14.57;4.15;;;5.10;99.90;;;;;;5031629;28;20052;-84
2021/01/02 00:15:04;;;;;;;7.85;4.40;;;5.20;99.90;;;;;;5034082;28;20194;-85
2021/01/02 00:17:54;;;;;;;8.25;4.05;;;5.20;99.90;;;;;;5039037;28;20363;-84
2021/01/02 00:20:47;;;;;;;8.02;3.80;;;5.20;99.90;;;;;;5029209;28;20037;-85
2021/01/02 00:23:50;;;;;;;8.43;3.72;;;5.20;99.90;;;;;;5035188;28;20321;-84
2021/01/02 00:26:30;;;;;;;12.65;5.00;;;5.20;99.90;;;;;;5021785;28;20049;-84
2021/01/02 00:28:57;;;;;;;6.25;3.88;;;5.10;99.90;;;;;;5027152;28;20252;-84
2021/01/02 00:31:39;;;;;;;7.57;4.45;;;5.00;99.90;;;;;;5022346;28;20045;-85
2021/01/02 00:34:43;;;;;;;9.55;4.13;;;5.10;99.90;;;;;;5029251;28;20057;-85
2021/01/02 00:37:27;;;;;;;11.32;3.95;;;5.10;99.90;;;;;;5040596;28;20077;-85
2021/01/02 00:40:05;;;;;;;8.05;4.10;;;5.10;99.90;;;;;;5057202;28;20057;-85
2021/01/02 00:42:32;;;;;;;7.95;5.70;;;5.10;99.90;;;;;;5020376;28;20068;-85
2021/01/02 00:45:00;;;;;;;9.23;5.07;;;5.00;99.90;;;;;;5030885;28;20080;-84
2021/01/02 00:47:27;;;;;;;13.35;5.18;;;5.00;99.90;;;;;;5018137;28;20073;-84
2021/01/02 00:49:55;;;;;;;13.73;5.30;;;5.00;99.90;;;;;;5026629;28;20962;-84
2021/01/02 00:52:30;;;;;;;10.43;5.82;;;5.00;99.90;;;;;;5072914;28;20051;-84
2021/01/02 00:55:25;;;;;;;14.93;5.20;;;4.90;99.90;;;;;;5037981;28;20607;-84
2021/01/02 00:58:20;;;;;;;9.05;5.13;;;4.90;99.90;;;;;;5038084;28;20474;-84
2021/01/02 01:00:56;;;;;;;8.88;5.18;;;4.90;99.90;;;;;;5018913;28;20136;-84
2021/01/02 01:03:56;;;;;;;8.60;4.68;;;4.80;99.90;;;;;;5032405;28;20072;-84
2021/01/02 01:06:25;;;;;;;12.40;4.60;;;4.80;99.90;;;;;;5048886;28;20045;-84
2021/01/02 01:08:53;;;;;;;10.98;4.85;;;4.80;99.90;;;;;;5033077;28;20045;-85
2021/01/02 01:11:22;;;;;;;10.15;4.85;;;4.70;99.90;;;;;;5039860;28;20045;-84
2021/01/02 01:13:54;;;;;;;12.57;5.63;;;4.80;99.90;;;;;;5064169;28;20079;-84
2021/01/02 01:16:25;;;;;;;10.88;4.80;;;4.70;99.90;;;;;;5038744;28;20037;-85
2021/01/02 01:19:05;;;;;;;12.82;5.18;;;4.70;99.90;;;;;;5030862;28;20490;-85
2021/01/02 01:21:35;;;;;;;7.95;4.15;;;4.70;99.90;;;;;;5017121;28;20052;-85
2021/01/02 01:24:13;;;;;;;8.18;4.00;;;4.70;99.90;;;;;;5020627;28;20049;-84
2021/01/02 01:27:04;;;;;;;9.70;4.00;;;4.70;99.90;;;;;;5019197;28;20049;-84
2021/01/02 01:29:40;;;;;;;9.75;5.05;;;4.70;99.90;;;;;;5019561;28;20041;-85
2021/01/02 01:32:08;;;;;;;11.48;4.32;;;4.60;99.90;;;;;;5028519;28;20164;-84
2021/01/02 01:34:34;;;;;;;10.48;3.38;;;4.60;99.90;;;;;;5033855;28;20453;-84
2021/01/02 01:37:07;;;;;;;14.57;4.00;;;4.50;99.90;;;;;;5037457;28;20110;-85
2021/01/02 01:39:35;;;;;;;8.60;3.87;;;4.50;99.90;;;;;;5023911;28;20069;-84
2021/01/02 01:42:04;;;;;;;11.45;4.13;;;4.50;99.90;;;;;;5026910;28;20477;-85
2021/01/02 01:44:53;;;;;;;7.95;3.53;;;4.50;99.90;;;;;;5023949;28;20038;-84
2021/01/02 01:47:37;;;;;;;5.80;3.08;;;4.50;99.90;;;;;;5029053;28;20045;-85
2021/01/02 01:50:05;;;;;;;;;;;4.40;99.90;;;;;;5019420;28;20081;-84
2021/01/02 01:52:40;;;;;;;7.07;3.70;;;4.40;99.90;;;;;;5055328;28;19921;-85
2021/01/02 01:55:09;;;;;;;6.57;3.65;;;4.30;99.90;;;;;;5018939;28;20063;-84
2021/01/02 01:57:41;;;;;;;10.65;3.25;;;4.30;99.90;;;;;;5023755;28;20116;-84
2021/01/02 02:00:16;;;;;;;10.40;3.58;;;4.40;99.90;;;;;;5018206;28;20455;-84
2021/01/02 02:02:47;;;;;;;11.13;4.80;;;4.40;99.90;;;;;;5029457;28;20037;-84
2021/01/02 02:05:23;;;;;;;9.00;3.55;;;4.30;99.90;;;;;;5052859;28;20849;-85
2021/01/02 02:08:00;;;;;;;22.88;12.05;;;4.30;99.90;;;;;;5027499;28;20049;-84
2021/01/02 02:10:28;;;;;;;16.27;4.38;;;4.40;99.90;;;;;;5017872;28;20431;-84
2021/01/02 02:12:55;;;;;;;11.02;4.63;;;4.30;99.90;;;;;;5018340;28;20093;-83
2021/01/02 02:15:23;;;;;;;6.68;3.20;;;4.30;99.90;;;;;;5019289;28;20415;-84
2021/01/02 02:17:53;;;;;;;7.38;3.38;;;4.20;99.90;;;;;;5024883;28;20494;-84
2021/01/02 02:20:24;;;;;;;11.65;3.80;;;4.20;99.90;;;;;;5023793;28;20041;-84
2021/01/02 02:23:00;;;;;;;6.30;2.85;;;4.20;99.90;;;;;;5037645;28;20051;-85
2021/01/02 02:25:30;;;;;;;11.25;3.22;;;4.20;99.90;;;;;;5038354;28;20694;-83
2021/01/02 02:27:56;;;;;;;9.48;3.08;;;4.30;99.90;;;;;;5023308;28;20136;-83
2021/01/02 02:30:36;;;;;;;14.63;2.95;;;4.30;99.90;;;;;;5005303;28;20049;-84
2021/01/02 02:33:07;;;;;;;12.75;3.20;;;4.30;99.90;;;;;;5024279;28;20060;-84
2021/01/02 02:35:36;;;;;;;17.15;2.78;;;4.30;99.90;;;;;;5055913;28;20045;-86
2021/01/02 02:38:02;;;;;;;9.35;2.97;;;4.30;99.90;;;;;;5042239;28;20111;-84
2021/01/02 02:40:28;;;;;;;9.82;2.55;;;4.40;99.90;;;;;;5070534;28;20510;-84
2021/01/02 02:42:57;;;;;;;10.13;2.65;;;4.40;99.90;;;;;;5042439;28;20037;-84
2021/01/02 02:45:24;;;;;;;10.00;2.95;;;4.50;99.90;;;;;;5072168;28;20040;-83
2021/01/02 02:47:54;;;;;;;14.10;2.70;;;4.50;99.90;;;;;;5022878;28;20041;-85
2021/01/02 02:50:25;;;;;;;6.03;2.30;;;4.50;99.90;;;;;;5023084;28;20081;-86
2021/01/02 02:53:05;;;;;;;4.65;1.95;;;4.60;99.90;;;;;;5041977;28;20497;-83
2021/01/02 02:55:31;;;;;;;10.10;2.80;;;4.60;99.90;;;;;;5031265;28;20119;-83
2021/01/02 02:57:59;;;;;;;11.20;2.40;;;4.60;99.90;;;;;;5042781;28;20080;-85
2021/01/02 03:00:25;;;;;;;8.65;2.63;;;4.60;99.90;;;;;;5037419;28;20053;-85
2021/01/02 03:02:51;;;;;;;9.85;2.53;;;4.60;99.90;;;;;;5022198;28;20033;-85
2021/01/02 03:05:17;;;;;;;5.88;2.15;;;4.60;99.90;;;;;;5029725;28;20052;-84
2021/01/02 03:07:50;;;;;;;11.98;2.78;;;4.60;99.90;;;;;;5020548;28;20542;-84
2021/01/02 03:10:19;;;;;;;9.38;2.05;;;4.60;99.90;;;;;;5025330;28;20112;-85
2021/01/02 03:12:50;;;;;;;13.63;2.47;;;4.60;99.90;;;;;;5020426;28;20309;-85
2021/01/02 03:15:17;;;;;;;16.45;3.40;;;4.60;99.90;;;;;;5025527;28;20033;-85
2021/01/02 03:17:45;;;;;;;15.85;2.97;;;4.60;99.90;;;;;;5019979;28;20693;-85
2021/01/02 03:20:13;;;;;;;16.08;2.58;;;4.60;99.90;;;;;;5026072;28;20281;-84
2021/01/02 03:22:39;;;;;;;14.85;3.05;;;4.60;99.90;;;;;;5021233;28;20056;-85
2021/01/02 03:25:10;;;;;;;16.05;2.28;;;4.60;99.90;;;;;;5028329;28;20120;-86
2021/01/02 03:27:35;;;;;;;14.07;2.95;;;4.70;99.90;;;;;;5020813;28;20069;-85
2021/01/02 03:30:07;;;;;;;21.33;4.15;;;4.60;99.90;;;;;;5008751;28;20560;-86
2021/01/02 03:32:34;;;;;;;18.52;2.55;;;4.60;99.90;;;;;;5022629;28;20098;-83
2021/01/02 03:35:00;;;;;;;16.17;2.95;;;4.60;99.90;;;;;;5037402;28;20056;-84
2021/01/02 03:37:27;;;;;;;12.82;2.80;;;4.60;99.90;;;;;;5023470;28;20045;-85
2021/01/02 03:39:52;;;;;;;10.35;2.80;;;4.50;99.90;;;;;;5040227;28;20041;-85
2021/01/02 03:42:18;;;;;;;12.93;2.65;;;4.50;99.90;;;;;;5019403;28;20052;-86
2021/01/02 03:44:44;;;;;;;13.65;2.70;;;4.50;99.90;;;;;;5021658;28;20045;-85
2021/01/02 03:47:10;;;;;;;13.20;3.13;;;4.40;99.90;;;;;;5042116;28;20532;-85
2021/01/02 03:49:37;;;;;;;12.05;4.75;;;4.40;99.90;;;;;;5021757;28;20045;-85
2021/01/02 03:52:06;;;;;;;13.80;3.15;;;4.40;99.90;;;;;;5026362;28;20045;-85
2021/01/02 03:54:33;;;;;;;9.98;2.83;;;4.40;99.90;;;;;;5069275;28;20052;-86
2021/01/02 03:56:58;;;;;;;7.22;2.50;;;4.40;99.90;;;;;;5026193;28;20252;-85
2021/01/02 03:59:24;;;;;;;11.50;3.15;;;4.40;99.90;;;;;;5037763;28;20414;-86
2021/01/02 04:01:58;;;;;;;13.93;4.32;;;4.40;99.90;;;;;;5057363;28;20052;-85
2021/01/02 04:04:25;;;;;;;12.02;2.90;;;4.30;99.90;;;;;;5023074;28;20115;-86
2021/01/02 04:06:51;;;;;;;14.15;3.17;;;4.40;99.90;;;;;;5037540;28;20051;-84
2021/01/02 04:09:20;;;;;;;14.80;3.63;;;4.30;99.90;;;;;;5023696;28;20120;-84
2021/01/02 04:11:46;;;;;;;12.02;2.80;;;4.30;99.90;;;;;;5034248;28;20036;-84
2021/01/02 04:14:13;;;;;;;16.95;2.92;;;4.30;99.90;;;;;;5056315;28;20410;-85
2021/01/02 04:16:40;;;;;;;11.88;3.67;;;4.30;99.90;;;;;;5021208;28;20125;-84
2021/01/02 04:19:06;;;;;;;10.80;2.63;;;4.30;99.90;;;;;;5032239;28;20040;-84
2021/01/02 04:21:33;;;;;;;11.68;3.30;;;4.30;99.90;;;;;;5027310;28;20044;-84
2021/01/02 04:23:59;;;;;;;9.88;2.75;;;4.40;99.90;;;;;;5025435;28;20475;-85
2021/01/02 04:26:25;;;;;;;14.55;2.45;;;4.40;99.90;;;;;;5030235;28;20040;-84
2021/01/02 04:28:51;;;;;;;16.42;2.90;;;4.40;99.90;;;;;;5056295;28;20041;-84
2021/01/02 04:31:21;;;;;;;10.63;2.40;;;4.50;99.90;;;;;;5028872;28;20048;-84
2021/01/02 04:33:48;;;;;;;11.75;2.65;;;4.60;99.90;;;;;;5072021;28;20064;-85
2021/01/02 04:36:17;;;;;;;9.68;2.63;;;4.60;99.90;;;;;;5031749;28;20045;-83
2021/01/02 04:38:43;;;;;;;7.80;1.90;;;4.60;99.90;;;;;;5019297;28;20046;-85
2021/01/02 04:41:13;;;;;;;8.68;2.05;;;4.60;99.90;;;;;;5026448;28;20052;-85
2021/01/02 04:43:38;;;;;;;13.65;2.25;;;4.70;99.90;;;;;;5039031;28;20049;-84
2021/01/02 04:46:06;;;;;;;11.50;2.67;;;4.70;99.90;;;;;;5067340;28;20042;-85
2021/01/02 04:48:31;;;;;;;10.07;2.33;;;4.70;99.90;;;;;;5019880;28;20040;-84
2021/01/02 04:50:57;;;;;;;12.20;2.10;;;4.80;99.90;;;;;;5021932;28;20542;-85
2021/01/02 04:53:24;;;;;;;13.68;2.10;;;4.80;99.90;;;;;;5037928;28;20045;-85
2021/01/02 04:55:53;;;;;;;8.85;2.05;;;4.80;99.90;;;;;;5037529;28;20635;-85
2021/01/02 04:58:21;;;;;;;9.07;2.15;;;4.80;99.90;;;;;;5018888;28;20052;-85
2021/01/02 05:00:48;;;;;;;7.32;2.17;;;4.80;99.90;;;;;;5023285;28;20060;-85
2021/01/02 05:03:14;;;;;;;8.13;2.05;;;4.80;99.90;;;;;;5040509;28;20067;-85
2021/01/02 05:05:40;;;;;;;8.43;1.98;;;4.80;99.90;;;;;;5034866;28;20045;-84
2021/01/02 05:08:06;;;;;;;10.68;2.22;;;4.70;99.90;;;;;;5019417;28;20533;-84
2021/01/02 05:10:33;;;;;;;13.15;2.10;;;4.70;99.90;;;;;;5019553;28;20054;-85
2021/01/02 05:13:17;;;;;;;11.55;2.35;;;4.60;99.90;;;;;;5036289;28;20127;-84
2021/01/02 05:15:42;;;;;;;7.88;1.55;;;4.70;99.90;;;;;;5069286;28;20041;-86
2021/01/02 05:18:08;;;;;;;10.77;2.38;;;4.60;99.90;;;;;;5038409;28;20037;-84
2021/01/02 05:20:34;;;;;;;10.13;1.95;;;4.60;99.90;;;;;;5032065;28;20037;-85
2021/01/02 05:23:09;;;;;;;14.98;2.55;;;4.60;99.90;;;;;;5036748;28;20140;-83
2021/01/02 05:25:36;;;;;;;3.70;1.40;;;4.60;99.90;;;;;;5025188;28;20040;-84
2021/01/02 05:28:02;;;;;;;10.43;2.08;;;4.50;99.90;;;;;;5022120;28;20517;-84
2021/01/02 05:30:33;;;;;;;13.68;2.80;;;4.60;99.90;;;;;;5019132;28;20037;-86
2021/01/02 05:33:01;;;;;;;12.25;2.25;;;4.60;99.90;;;;;;5034179;28;20150;-85
2021/01/02 05:35:30;;;;;;;12.07;2.05;;;4.50;99.90;;;;;;5033103;28;20510;-84
2021/01/02 05:38:08;;;;;;;11.57;2.00;;;4.50;99.90;;;;;;5019868;28;20056;-84
2021/01/02 05:40:36;;;;;;;11.45;2.10;;;4.50;99.90;;;;;;5037147;28;20183;-84
2021/01/02 05:43:02;;;;;;;14.20;2.10;;;4.40;99.90;;;;;;5021038;28;20045;-84
2021/01/02 05:45:28;;;;;;;9.75;2.50;;;4.40;99.90;;;;;;5031952;28;20124;-84
2021/01/02 05:48:11;;;;;;;7.80;1.80;;;4.40;99.90;;;;;;5055604;28;20048;-84
2021/01/02 05:51:06;;;;;;;12.45;2.00;;;4.40;99.90;;;;;;5036285;28;20201;-84
2021/01/02 05:53:35;;;;;;;17.25;2.35;;;4.40;99.90;;;;;;5021910;28;20061;-84
2021/01/02 05:56:04;;;;;;;11.65;2.38;;;4.30;99.90;;;;;;5023685;28;20135;-83
2021/01/02 05:58:32;;;;;;;9.65;2.03;;;4.20;99.90;;;;;;5072984;28;20063;-84
2021/01/02 06:01:08;;;;;;;9.15;1.60;;;4.20;99.90;;;;;;5023616;28;20094;-85
2021/01/02 06:03:36;;;;;;;22.35;2.80;;;4.30;99.90;;;;;;5042118;28;20045;-84
2021/01/02 06:06:03;;;;;;;11.35;1.85;;;4.30;99.90;;;;;;5042422;28;20498;-84
2021/01/02 06:08:37;;;;;;;6.60;1.50;;;4.20;99.90;;;;;;5024987;28;20407;-84
2021/01/02 06:11:14;;;;;;;6.35;1.67;;;4.20;99.90;;;;;;5043196;28;20336;-84
2021/01/02 06:13:43;;;;;;;12.75;2.30;;;4.20;99.90;;;;;;5027602;28;20052;-85
2021/01/02 06:16:09;;;;;;;7.95;1.70;;;4.20;99.90;;;;;;5024909;28;20494;-84
2021/01/02 06:18:40;;;;;;;8.57;1.90;;;4.20;99.90;;;;;;5024849;28;20041;-84
2021/01/02 06:21:16;;;;;;;8.93;2.40;;;4.10;99.90;;;;;;5023965;28;20522;-84
2021/01/02 06:23:44;;;;;;;9.80;1.90;;;4.20;99.90;;;;;;5028622;28;20120;-84
2021/01/02 06:26:11;;;;;;;11.82;1.83;;;4.20;99.90;;;;;;5024089;28;20080;-84
2021/01/02 06:28:42;;;;;;;9.23;1.45;;;4.20;99.90;;;;;;5029288;28;20037;-85
2021/01/02 06:31:12;;;;;;;8.50;2.20;;;4.20;99.90;;;;;;5023555;28;20042;-84
2021/01/02 06:33:49;;;;;;;12.18;2.35;;;4.20;99.90;;;;;;5040397;28;20513;-85
2021/01/02 06:36:33;;;;;;;6.63;1.80;;;4.20;99.90;;;;;;5036791;28;20041;-84
2021/01/02 06:39:24;;;;;;;7.93;1.98;;;4.20;99.90;;;;;;5038215;28;20036;-84
2021/01/02 06:41:52;;;;;;;13.98;3.03;;;4.20;99.90;;;;;;5037463;28;20077;-85
2021/01/02 06:44:37;;;;;;;11.20;2.25;;;4.20;99.90;;;;;;5034132;28;20045;-84
2021/01/02 06:47:12;;;;;;;10.00;1.88;;;4.30;99.90;;;;;;5031805;28;20037;-84
2021/01/02 06:49:38;;;;;;;5.95;2.95;;;4.30;99.90;;;;;;5039981;28;20138;-85
2021/01/02 06:52:03;;;;;;;7.50;2.60;;;4.30;99.90;;;;;;5041293;28;20510;-84
2021/01/02 06:54:29;;;;;;;8.57;2.08;;;4.40;99.90;;;;;;5042072;28;20256;-83
2021/01/02 06:57:01;;;;;;;9.00;2.55;;;4.40;99.90;;;;;;5033538;28;20041;-84
2021/01/02 06:59:27;;;;;;;6.70;2.00;;;4.50;99.90;;;;;;5051064;28;20660;-84
2021/01/02 07:01:53;;;;;;;8.90;2.35;;;4.50;99.90;;;;;;5071895;28;20065;-84
2021/01/02 07:04:37;;;;;;;16.70;2.50;;;4.50;99.90;;;;;;5022553;28;20041;-84
2021/01/02 07:07:04;;;;;;;12.00;2.08;;;4.50;99.90;;;;;;5031856;28;20514;-84
2021/01/02 07:09:30;;;;;;;10.05;2.13;;;4.50;99.90;;;;;;5020127;28;20049;-83
2021/01/02 07:12:10;;;;;;;8.88;1.90;;;4.50;99.90;;;;;;5025815;28;20041;-85
2021/01/02 07:14:36;;;;;;;11.57;2.40;;;4.60;99.90;;;;;;5042621;28;20512;-85
2021/01/02 07:17:10;;;;;;;8.88;2.03;;;4.60;99.90;;;;;;5032834;28;20119;-84
2021/01/02 07:19:38;;;;;;;8.20;1.90;;;4.50;99.90;;;;;;5035962;28;20478;-85
2021/01/02 07:22:05;;;;;;;9.95;2.22;;;4.60;99.90;;;;;;5035288;28;20053;-85
2021/01/02 07:24:43;;;;;;;5.70;1.70;;;4.50;99.90;;;;;;5032580;28;20163;-85
2021/01/02 07:27:16;;;;;;;7.82;1.75;;;4.50;99.90;;;;;;5031914;28;20047;-84
2021/01/02 07:29:43;;;;;;;;;;;4.60;99.90;;;;;;5032144;28;20094;-86
2021/01/02 07:32:26;;;;;;;13.93;2.38;;;4.50;99.90;;;;;;5038063;28;19932;-85
2021/01/02 07:35:09;;;;;;;6.97;1.80;;;4.50;99.90;;;;;;5037443;28;20066;-85
2021/01/02 07:37:38;;;;;;;8.07;1.45;;;4.50;99.90;;;;;;5029485;28;20044;-85
2021/01/02 07:40:08;;;;;;;10.23;1.80;;;4.60;99.90;;;;;;5037071;28;20218;-84
2021/01/02 07:42:54;;;;;;;5.85;1.85;;;4.60;99.90;;;;;;5036580;28;20508;-85
2021/01/02 07:45:22;;;;;;;8.90;1.90;;;4.60;99.90;;;;;;5038205;28;20055;-85
2021/01/02 07:47:56;;;;;;;9.98;2.45;;;4.60;99.90;;;;;;5036742;28;20041;-86
2021/01/02 07:50:24;;;;;;;11.88;2.33;;;4.60;99.90;;;;;;5032259;28;20041;-85
2021/01/02 07:52:53;;;;;;;7.82;1.90;;;4.70;99.90;;;;;;5054138;28;20072;-85
2021/01/02 07:55:26;;;;;;;5.97;2.17;;;4.70;99.90;;;;;;5029609;28;20486;-85
2021/01/02 07:57:53;;;;;;;17.65;2.95;;;4.70;99.90;;;;;;5041599;28;20423;-83
2021/01/02 08:00:19;;;;;;;6.50;1.60;;;4.70;99.90;;;;;;5040501;28;20441;-87
2021/01/02 08:02:45;;;;;;;5.88;1.85;;;4.80;99.90;;;;;;5040835;28;20095;-86
2021/01/02 08:05:12;;;;;;;6.07;1.67;;;4.90;99.90;;;;;;5028697;28;20037;-86
2021/01/02 08:07:39;;;;;;;10.00;2.22;;;5.00;99.90;;;;;;5036718;28;20110;-86
2021/01/02 08:10:13;;;;;;;6.63;2.53;;;5.00;99.90;;;;;;5041731;28;20124;-86
2021/01/02 08:12:50;;;;;;;6.50;1.55;;;5.00;99.90;;;;;;5038073;28;20037;-86
2021/01/02 08:15:25;;;;;;;6.82;3.90;;;4.90;99.90;;;;;;5039036;28;20505;-86
2021/01/02 08:17:50;;;;;;;5.80;2.38;;;4.90;99.90;;;;;;5040593;28;20045;-85
2021/01/02 08:20:16;;;;;;;5.82;2.42;;;4.90;99.90;;;;;;5039614;28;20045;-86
2021/01/02 08:22:42;;;;;;;5.60;2.65;;;4.90;99.90;;;;;;5031866;28;20041;-86
2021/01/02 08:25:15;;;;;;;6.93;2.10;;;5.00;99.90;;;;;;5038289;28;20075;-86
2021/01/02 08:27:42;;;;;;;5.63;1.80;;;5.10;99.90;;;;;;5038422;28;20050;-86
2021/01/02 08:30:10;;;;;;;9.02;2.22;;;5.30;99.90;;;;;;5030338;28;20206;-85
2021/01/02 08:32:40;;;;;;;4.07;1.75;;;5.80;99.90;;;;;;5039509;28;20187;-86
2021/01/02 08:35:19;;;;;;;3.35;1.50;;;6.90;99.40;;;;;;5038043;28;20076;-86
2021/01/02 08:37:46;;;;;;;3.45;1.50;;;7.80;96.60;;;;;;5039355;28;20067;-87
2021/01/02 08:40:14;;;;;;;2.95;1.48;;;8.40;95.00;;;;;;5037834;28;20080;-86
2021/01/02 08:42:42;;;;;;;3.13;1.30;;;9.10;93.80;;;;;;5052697;28;20136;-85
2021/01/02 08:45:09;;;;;;;6.00;1.60;;;9.50;92.30;;;;;;5036947;28;20045;-86
2021/01/02 08:47:36;;;;;;;3.70;1.42;;;9.80;91.10;;;;;;5038758;28;20037;-85
2021/01/02 08:50:13;;;;;;;7.50;1.30;;;10.20;91.40;;;;;;5038575;28;20045;-86
2021/01/02 08:52:40;;;;;;;3.05;1.15;;;10.50;88.70;;;;;;5037676;28;20274;-85
2021/01/02 08:55:12;;;;;;;5.25;1.10;;;10.40;89.30;;;;;;5039244;28;20063;-85
2021/01/02 08:57:48;;;;;;;2.30;1.10;;;10.80;88.80;;;;;;5038829;28;20047;-85
2021/01/02 09:00:15;;;;;;;4.28;1.42;;;11.00;87.90;;;;;;5040423;28;20056;-85
2021/01/02 09:02:46;;;;;;;3.30;1.27;;;10.10;90.20;;;;;;5037913;28;20057;-85
2021/01/02 09:05:31;;;;;;;6.43;1.48;;;9.30;90.50;;;;;;5036372;28;20040;-85
2021/01/02 09:07:59;;;;;;;3.28;1.05;;;8.80;92.90;;;;;;5039256;28;20045;-87
2021/01/02 09:10:30;;;;;;;2.33;1.05;;;8.40;93.60;;;;;;5039277;28;20036;-87
2021/01/02 09:13:10;;;;;;;1.70;1.40;;;8.20;94.40;;;;;;5037275;28;20031;-86
2021/01/02 09:15:42;;;;;;;7.00;1.90;;;8.00;95.20;;;;;;5037764;28;20041;-87
2021/01/02 09:18:08;;;;;;;3.97;1.48;;;7.80;95.70;;;;;;5038872;28;20080;-86
2021/01/02 09:20:34;;;;;;;5.45;1.20;;;7.80;95.60;;;;;;5037644;28;20106;-87
2021/01/02 09:23:00;;;;;;;5.53;1.48;;;7.70;95.50;;;;;;5054147;28;20041;-86
2021/01/02 09:25:30;;;;;;;2.80;1.30;;;7.90;95.50;;;;;;5052992;28;20308;-83
2021/01/02 09:28:08;;;;;;;3.97;2.05;;;8.10;95.00;;;;;;5039052;28;20044;-80
2021/01/02 09:30:34;;;;;;;3.83;1.27;;;9.00;93.70;;;;;;5031501;28;20490;-81
2021/01/02 09:32:59;;;;;;;3.00;2.30;;;8.90;93.50;;;;;;5037097;28;20106;-81
2021/01/02 09:35:25;;;;;;;4.82;1.50;;;8.90;93.10;;;;;;5033808;28;20132;-82
2021/01/02 09:37:51;;;;;;;6.50;1.92;;;8.70;93.40;;;;;;5034458;28;20045;-83
2021/01/02 09:40:19;;;;;;;2.88;1.88;;;8.60;94.40;;;;;;5037408;28;20045;-82
2021/01/02 09:42:46;;;;;;;3.33;1.48;;;8.40;94.50;;;;;;5036561;28;20072;-82
2021/01/02 09:45:12;;;;;;;2.97;1.48;;;8.80;93.30;;;;;;5022748;28;20049;-84
2021/01/02 09:47:38;;;;;;;5.93;1.83;;;9.80;92.60;;;;;;5037901;28;20048;-83
2021/01/02 09:50:05;;;;;;;2.80;1.45;;;10.80;91.00;;;;;;5037256;28;20045;-83
2021/01/02 09:52:31;;;;;;;2.28;1.23;;;11.80;88.10;;;;;;5053432;28;20426;-83
2021/01/02 09:54:56;;;;;;;6.10;2.67;;;12.50;85.50;;;;;;5037249;28;20519;-84
2021/01/02 09:57:22;;;;;;;4.45;1.63;;;13.00;83.00;;;;;;5038569;28;20045;-85
2021/01/02 09:59:48;;;;;;;4.28;1.60;;;12.40;83.10;;;;;;5035145;28;20461;-83
2021/01/02 10:02:13;;;;;;;4.47;1.75;;;12.90;82.20;;;;;;5037896;28;20060;-84
2021/01/02 10:04:47;;;;;;;3.55;1.55;;;12.10;85.60;;;;;;5033932;28;20098;-83
2021/01/02 10:07:14;;;;;;;1.70;1.13;;;11.20;87.80;;;;;;5029140;28;20476;-84
2021/01/02 10:09:42;;;;;;;3.97;1.48;;;10.90;89.70;;;;;;5033995;28;20048;-81
2021/01/02 10:12:08;;;;;;;2.42;1.35;;;10.40;90.60;;;;;;5029203;28;20043;-83
2021/01/02 10:14:34;;;;;;;3.88;1.35;;;10.10;90.30;;;;;;5028436;28;20802;-81
2021/01/02 10:17:00;;;;;;;4.00;1.50;;;9.70;91.70;;;;;;5030532;28;20052;-82
2021/01/02 10:19:25;;;;;;;3.47;1.60;;;9.70;91.80;;;;;;5035885;28;20041;-82
2021/01/02 10:21:51;;;;;;;6.82;1.58;;;9.50;92.20;;;;;;5038048;28;20045;-82
2021/01/02 10:24:17;;;;;;;3.50;1.30;;;9.30;92.80;;;;;;5038232;28;20037;-82
2021/01/02 10:26:42;;;;;;;3.78;1.20;;;9.30;92.60;;;;;;5037749;28;20052;-81
2021/01/02 10:29:08;;;;;;;4.05;1.90;;;9.30;92.80;;;;;;5037819;28;20049;-83
2021/01/02 10:31:34;;;;;;;6.50;2.47;;;9.20;93.20;;;;;;5037198;28;20445;-82
2021/01/02 10:33:59;;;;;;;5.30;1.88;;;9.10;93.80;;;;;;5036312;28;20083;-82
2021/01/02 10:36:25;;;;;;;3.03;1.50;;;9.10;93.10;;;;;;5038673;28;20044;-83
2021/01/02 10:38:51;;;;;;;4.32;2.03;;;9.10;93.50;;;;;;5040390;28;20597;-82
2021/01/02 10:41:16;;;;;;;2.83;1.50;;;9.00;93.30;;;;;;5042057;28;20045;-83
2021/01/02 10:43:42;;;;;;;2.83;1.05;;;9.10;93.80;;;;;;5040459;28;20045;-82
2021/01/02 10:46:09;;;;;;;5.03;1.65;;;9.00;93.20;;;;;;5040464;28;20044;-83
2021/01/02 10:48:35;;;;;;;3.42;1.33;;;9.10;93.30;;;;;;5040725;28;20233;-83
2021/01/02 10:51:01;;;;;;;3.50;1.48;;;9.00;92.70;;;;;;5036364;28;20075;-81
2021/01/02 10:53:26;;;;;;;2.72;1.67;;;9.00;93.50;;;;;;5040811;28;20041;-81
2021/01/02 10:55:52;;;;;;;4.68;1.50;;;9.20;92.80;;;;;;5039147;28;20037;-81
2021/01/02 10:58:17;;;;;;;2.08;1.40;;;9.30;93.20;;;;;;5041630;28;20047;-81
2021/01/02 11:00:43;;;;;;;2.63;1.50;;;9.30;93.60;;;;;;5041458;28;20037;-83
2021/01/02 11:03:08;;;;;;;3.90;1.70;;;9.30;93.40;;;;;;5040179;28;20036;-82
2021/01/02 11:05:34;;;;;;;2.13;1.35;;;9.40;93.80;;;;;;5035652;28;20049;-84
2021/01/02 11:08:00;;;;;;;2.85;1.33;;;9.50;93.30;;;;;;5060047;28;20055;-81
2021/01/02 11:10:26;;;;;;;4.43;2.03;;;10.10;92.10;;;;;;5029417;28;20053;-82
2021/01/02 11:12:52;;;;;;;2.15;1.52;;;10.40;91.30;;;;;;5024839;28;20349;-82
2021/01/02 11:15:18;;;;;;;13.40;4.72;;;11.60;90.00;;;;;;5023832;28;20057;-82
2021/01/02 11:17:43;;;;;;;12.43;4.40;;;10.90;90.50;;;;;;5028269;28;20060;-82
2021/01/02 11:20:10;;;;;;;5.00;2.25;;;10.60;90.00;;;;;;5032069;28;20054;-83
2021/01/02 11:22:36;;;;;;;16.75;5.95;;;10.80;89.20;;;;;;5036437;28;20122;-82
2021/01/02 11:25:06;;;;;;;18.42;6.07;;;10.90;88.80;;;;;;5040584;28;20045;-84
2021/01/02 11:27:31;;;;;;;13.88;3.88;;;11.90;88.10;;;;;;5040784;28;20053;-83
2021/01/02 11:29:57;;;;;;;20.83;8.00;;;13.00;84.70;;;;;;5040683;28;20064;-82
2021/01/02 11:32:23;;;;;;;23.30;8.10;;;13.50;80.90;;;;;;5039897;28;20573;-82
2021/01/02 11:34:48;;;;;;;26.25;9.05;;;12.70;82.20;;;;;;5039943;28;20490;-83
2021/01/02 11:37:14;;;;;;;14.88;5.13;;;13.80;79.30;;;;;;5041420;28;20041;-82
2021/01/02 11:39:40;;;;;;;5.63;2.05;;;14.10;78.10;;;;;;5039663;28;20069;-82
2021/01/02 11:42:08;;;;;;;7.88;2.95;;;14.30;76.80;;;;;;5041538;28;20277;-83
2021/01/02 11:44:34;;;;;;;7.88;1.70;;;14.10;78.10;;;;;;5034809;28;20683;-85
2021/01/02 11:47:02;;;;;;;3.65;1.63;;;14.10;76.30;;;;;;5035640;28;20052;-85
2021/01/02 11:49:43;;;;;;;4.22;1.90;;;14.60;75.50;;;;;;5037852;28;20119;-85
2021/01/02 11:52:11;;;;;;;4.80;2.03;;;13.60;78.70;;;;;;5040387;28;20041;-85
2021/01/02 11:54:36;;;;;;;4.50;1.55;;;13.60;78.00;;;;;;5037788;28;20041;-85
2021/01/02 11:57:06;;;;;;;3.08;1.00;;;12.40;80.60;;;;;;5040236;28;20052;-85
2021/01/02 11:59:32;;;;;;;9.73;2.80;;;11.20;84.60;;;;;;5037874;28;20076;-88
2021/01/02 12:02:00;;;;;;;7.72;2.50;;;11.20;88.80;;;;;;5038187;28;20048;-85
2021/01/02 12:04:28;;;;;;;5.93;2.28;;;11.10;87.80;;;;;;5054028;28;20478;-85
2021/01/02 12:06:54;;;;;;;7.20;2.60;;;10.50;90.40;;;;;;5040884;28;20076;-86
2021/01/02 12:09:25;;;;;;;4.35;1.90;;;10.30;91.10;;;;;;5040598;28;20110;-85
2021/01/02 12:11:51;;;;;;;5.22;2.20;;;9.80;91.70;;;;;;5040354;28;20049;-85
2021/01/02 12:14:21;;;;;;;3.33;1.70;;;9.70;92.70;;;;;;5040762;28;20051;-84
2021/01/02 12:16:49;;;;;;;5.15;1.60;;;9.60;92.60;;;;;;5039671;28;20049;-84
2021/01/02 12:19:24;;;;;;;12.23;4.72;;;9.30;93.20;;;;;;5039809;28;20049;-86
2021/01/02 12:21:54;;;;;;;13.40;5.38;;;9.30;94.40;;;;;;5056795;28;20225;-84
2021/01/02 12:24:21;;;;;;;12.68;4.07;;;9.10;93.90;;;;;;5039871;28;20441;-85
2021/01/02 12:26:50;;;;;;;12.68;4.47;;;9.00;95.30;;;;;;5041184;28;20118;-86
2021/01/02 12:29:18;;;;;;;4.45;1.70;;;9.10;95.00;;;;;;5040530;28;20404;-85
2021/01/02 12:31:50;;;;;;;28.35;7.63;;;9.40;94.50;;;;;;5039549;28;20072;-85
2021/01/02 12:34:16;;;;;;;57.95;19.45;;;9.30;94.40;;;;;;5039317;28;20146;-84
2021/01/02 12:36:43;;;;;;;19.67;5.95;;;10.60;93.50;;;;;;5040794;28;20075;-83
2021/01/02 12:39:10;;;;;;;45.08;15.32;;;10.50;92.50;;;;;;5040107;28;20521;-86
2021/01/02 12:41:36;;;;;;;33.92;11.73;;;11.50;90.00;;;;;;5040021;28;20486;-85
2021/01/02 12:44:03;;;;;;;11.07;3.60;;;12.90;87.70;;;;;;5039573;28;20268;-86
2021/01/02 12:46:36;;;;;;;17.88;6.65;;;12.80;84.90;;;;;;5039262;28;20049;-86
2021/01/02 12:49:02;;;;;;;;;;;13.80;80.10;;;;;;5037542;28;20532;-86
2021/01/02 12:51:27;;;;;;;5.03;1.55;;;13.90;77.60;;;;;;5040210;28;20249;-85
2021/01/02 12:53:53;;;;;;;8.07;3.00;;;14.30;77.10;;;;;;5040178;28;20045;-85
2021/01/02 12:56:19;;;;;;;9.75;3.85;;;14.20;77.20;;;;;;5038268;28;20536;-85
2021/01/02 12:58:44;;;;;;;12.00;4.10;;;14.70;78.10;;;;;;5034332;28;20178;-85
2021/01/02 13:01:10;;;;;;;18.55;5.70;;;15.30;74.00;;;;;;5038508;28;20296;-85
2021/01/02 13:03:35;;;;;;;21.67;7.25;;;15.00;73.60;;;;;;5038791;28;20049;-86
2021/01/02 13:06:01;;;;;;;7.82;2.97;;;14.60;75.60;;;;;;5040106;28;20036;-85
2021/01/02 13:08:27;;;;;;;7.10;1.60;;;14.70;74.10;;;;;;5031151;28;20041;-86